sensor_id;sensor_type;location;lat;lon;timestamp;pressure;altitude;pressure_sealevel;temperature;humidity
39051;BME280;24805;55.852;37.644;2022-08-19T00:02:42;100019.59;;;22.58;43.65
39051;BME280;24805;55.852;37.644;2022-08-19T00:07:51;100024.66;;;22.54;43.81
39051;BME280;24805;55.852;37.644;2022-08-19T00:12:53;100019.63;;;22.46;43.86
39051;BME280;24805;55.852;37.644;2022-08-19T00:17:55;100027.41;;;22.43;43.81
39051;BME280;24805;55.852;37.644;2022-08-19T00:22:57;100038.97;;;22.38;43.56
39051;BME280;24805;55.852;37.644;2022-08-19T00:27:59;100037.81;;;22.34;43.47
39051;BME280;24805;55.852;37.644;2022-08-19T00:33:02;100032.53;;;22.27;43.36
39051;BME280;24805;55.852;37.644;2022-08-19T00:38:04;100039.72;;;22.22;43.63
39051;BME280;24805;55.852;37.644;2022-08-19T00:43:11;100042.41;;;22.22;43.67
39051;BME280;24805;55.852;37.644;2022-08-19T00:48:16;100054.34;;;22.09;43.80
39051;BME280;24805;55.852;37.644;2022-08-19T00:53:22;100042.47;;;22.10;43.75
39051;BME280;24805;55.852;37.644;2022-08-19T00:58:29;100057.75;;;22.05;43.86
39051;BME280;24805;55.852;37.644;2022-08-19T01:03:31;100043.66;;;21.91;43.89
39051;BME280;24805;55.852;37.644;2022-08-19T01:08:54;100057.66;;;21.88;43.82
39051;BME280;24805;55.852;37.644;2022-08-19T01:13:57;100061.22;;;21.77;44.10
39051;BME280;24805;55.852;37.644;2022-08-19T01:19:00;100082.47;;;21.73;44.77
39051;BME280;24805;55.852;37.644;2022-08-19T01:24:04;100087.84;;;21.61;44.30
39051;BME280;24805;55.852;37.644;2022-08-19T01:29:06;100076.84;;;21.51;44.94
39051;BME280;24805;55.852;37.644;2022-08-19T01:34:10;100081.75;;;21.43;44.99
39051;BME280;24805;55.852;37.644;2022-08-19T01:39:16;100078.47;;;21.41;45.30
39051;BME280;24805;55.852;37.644;2022-08-19T01:44:19;100082.59;;;21.31;45.25
39051;BME280;24805;55.852;37.644;2022-08-19T01:49:25;100077.88;;;21.27;45.45
39051;BME280;24805;55.852;37.644;2022-08-19T01:54:28;100077.16;;;21.20;45.65
39051;BME280;24805;55.852;37.644;2022-08-19T01:59:31;100075.16;;;21.15;46.10
39051;BME280;24805;55.852;37.644;2022-08-19T02:04:34;100070.81;;;21.14;46.20
39051;BME280;24805;55.852;37.644;2022-08-19T02:09:37;100074.09;;;21.16;46.26
39051;BME280;24805;55.852;37.644;2022-08-19T02:14:40;100073.16;;;21.11;46.06
39051;BME280;24805;55.852;37.644;2022-08-19T02:19:42;100075.38;;;21.14;45.86
39051;BME280;24805;55.852;37.644;2022-08-19T02:24:44;100090.84;;;21.18;45.89
39051;BME280;24805;55.852;37.644;2022-08-19T02:29:48;100084.19;;;21.21;45.85
39051;BME280;24805;55.852;37.644;2022-08-19T02:34:50;100096.19;;;21.25;45.78
39051;BME280;24805;55.852;37.644;2022-08-19T02:39:53;100110.25;;;21.27;45.65
39051;BME280;24805;55.852;37.644;2022-08-19T02:44:55;100108.63;;;21.26;45.78
39051;BME280;24805;55.852;37.644;2022-08-19T02:49:58;100101.81;;;21.23;45.68
39051;BME280;24805;55.852;37.644;2022-08-19T02:55:00;100108.03;;;21.24;45.91
39051;BME280;24805;55.852;37.644;2022-08-19T03:00:06;100106.88;;;21.31;45.59
39051;BME280;24805;55.852;37.644;2022-08-19T03:05:09;100101.84;;;21.35;45.66
39051;BME280;24805;55.852;37.644;2022-08-19T03:10:12;100108.38;;;21.39;45.21
39051;BME280;24805;55.852;37.644;2022-08-19T03:15:14;100103.13;;;21.44;45.06
39051;BME280;24805;55.852;37.644;2022-08-19T03:20:17;100108.06;;;21.47;45.30
39051;BME280;24805;55.852;37.644;2022-08-19T03:25:19;100118.38;;;21.50;45.24
39051;BME280;24805;55.852;37.644;2022-08-19T03:30:21;100108.75;;;21.54;45.55
39051;BME280;24805;55.852;37.644;2022-08-19T03:35:24;100109.69;;;21.60;45.18
39051;BME280;24805;55.852;37.644;2022-08-19T03:40:26;100111.31;;;21.61;45.12
39051;BME280;24805;55.852;37.644;2022-08-19T03:45:29;100114.16;;;21.66;45.35
39051;BME280;24805;55.852;37.644;2022-08-19T03:50:31;100108.50;;;21.67;44.86
39051;BME280;24805;55.852;37.644;2022-08-19T03:55:33;100117.78;;;21.72;45.17
39051;BME280;24805;55.852;37.644;2022-08-19T04:00:35;100114.84;;;21.85;44.97
39051;BME280;24805;55.852;37.644;2022-08-19T04:05:38;100093.78;;;21.98;44.78
39051;BME280;24805;55.852;37.644;2022-08-19T04:10:40;100113.31;;;22.12;44.58
39051;BME280;24805;55.852;37.644;2022-08-19T04:15:45;100121.84;;;22.32;44.38
39051;BME280;24805;55.852;37.644;2022-08-19T04:20:48;100108.38;;;22.49;43.78
39051;BME280;24805;55.852;37.644;2022-08-19T04:25:50;100125.69;;;22.65;43.43
39051;BME280;24805;55.852;37.644;2022-08-19T04:30:54;100122.25;;;22.81;43.19
39051;BME280;24805;55.852;37.644;2022-08-19T04:35:56;100124.41;;;22.96;42.81
39051;BME280;24805;55.852;37.644;2022-08-19T04:41:04;100115.06;;;23.20;42.55
39051;BME280;24805;55.852;37.644;2022-08-19T04:46:25;100124.56;;;23.40;42.11
39051;BME280;24805;55.852;37.644;2022-08-19T04:51:43;100126.19;;;23.52;41.89
39051;BME280;24805;55.852;37.644;2022-08-19T04:56:45;100125.81;;;23.65;41.60
39051;BME280;24805;55.852;37.644;2022-08-19T05:01:48;100126.13;;;23.86;41.35
39051;BME280;24805;55.852;37.644;2022-08-19T05:06:51;100132.47;;;24.13;40.73
39051;BME280;24805;55.852;37.644;2022-08-19T05:12:00;100129.53;;;24.36;40.40
39051;BME280;24805;55.852;37.644;2022-08-19T05:17:03;100123.75;;;24.77;39.76
39051;BME280;24805;55.852;37.644;2022-08-19T05:22:25;100125.81;;;25.23;38.88
39051;BME280;24805;55.852;37.644;2022-08-19T05:27:37;100130.50;;;25.65;38.37
39051;BME280;24805;55.852;37.644;2022-08-19T05:32:41;100126.66;;;26.08;37.48
39051;BME280;24805;55.852;37.644;2022-08-19T05:37:43;100127.69;;;26.49;36.81
39051;BME280;24805;55.852;37.644;2022-08-19T05:42:46;100128.38;;;26.97;35.87
39051;BME280;24805;55.852;37.644;2022-08-19T05:47:56;100134.06;;;27.41;35.39
39051;BME280;24805;55.852;37.644;2022-08-19T05:52:58;100133.50;;;27.85;34.78
39051;BME280;24805;55.852;37.644;2022-08-19T05:58:00;100133.44;;;28.05;34.06
39051;BME280;24805;55.852;37.644;2022-08-19T06:03:03;100125.25;;;28.10;33.77
39051;BME280;24805;55.852;37.644;2022-08-19T06:08:14;100136.72;;;28.02;34.20
39051;BME280;24805;55.852;37.644;2022-08-19T06:13:16;100136.50;;;27.83;34.36
39051;BME280;24805;55.852;37.644;2022-08-19T06:18:20;100133.78;;;27.78;34.35
39051;BME280;24805;55.852;37.644;2022-08-19T06:23:22;100143.59;;;27.79;34.49
39051;BME280;24805;55.852;37.644;2022-08-19T06:28:25;100144.94;;;27.92;34.30
39051;BME280;24805;55.852;37.644;2022-08-19T06:33:27;100154.13;;;28.26;33.94
39051;BME280;24805;55.852;37.644;2022-08-19T06:38:31;100146.81;;;28.76;33.00
39051;BME280;24805;55.852;37.644;2022-08-19T06:43:35;100128.06;;;29.37;32.24
39051;BME280;24805;55.852;37.644;2022-08-19T06:48:43;100138.19;;;29.95;30.82
39051;BME280;24805;55.852;37.644;2022-08-19T06:53:48;100144.16;;;30.87;30.05
39051;BME280;24805;55.852;37.644;2022-08-19T06:58:55;100127.84;;;32.07;28.20
39051;BME280;24805;55.852;37.644;2022-08-19T07:03:57;100134.00;;;32.67;27.37
39051;BME280;24805;55.852;37.644;2022-08-19T07:08:59;100121.25;;;32.22;27.26
39051;BME280;24805;55.852;37.644;2022-08-19T07:14:02;100135.16;;;31.19;27.91
39051;BME280;24805;55.852;37.644;2022-08-19T07:19:05;100122.78;;;30.04;29.21
39051;BME280;24805;55.852;37.644;2022-08-19T07:24:17;100116.94;;;29.29;30.00
39051;BME280;24805;55.852;37.644;2022-08-19T07:29:20;100126.25;;;28.89;30.63
39051;BME280;24805;55.852;37.644;2022-08-19T07:34:30;100138.69;;;28.61;30.80
39051;BME280;24805;55.852;37.644;2022-08-19T07:39:36;100138.25;;;28.38;31.09
39051;BME280;24805;55.852;37.644;2022-08-19T07:44:38;100144.06;;;28.17;30.83
39051;BME280;24805;55.852;37.644;2022-08-19T07:49:41;100120.19;;;28.48;30.70
39051;BME280;24805;55.852;37.644;2022-08-19T07:54:44;100143.19;;;29.59;29.10
39051;BME280;24805;55.852;37.644;2022-08-19T07:59:46;100152.97;;;31.54;26.82
39051;BME280;24805;55.852;37.644;2022-08-19T08:04:48;100152.38;;;32.94;24.74
39051;BME280;24805;55.852;37.644;2022-08-19T08:10:08;100158.13;;;34.52;24.34
39051;BME280;24805;55.852;37.644;2022-08-19T08:15:22;100152.59;;;33.96;23.64
39051;BME280;24805;55.852;37.644;2022-08-19T08:20:25;100146.09;;;33.92;23.58
39051;BME280;24805;55.852;37.644;2022-08-19T08:25:28;100154.50;;;33.64;23.99
39051;BME280;24805;55.852;37.644;2022-08-19T08:30:34;100165.22;;;34.45;23.34
39051;BME280;24805;55.852;37.644;2022-08-19T08:35:39;100173.22;;;34.15;23.36
39051;BME280;24805;55.852;37.644;2022-08-19T08:40:50;100179.56;;;33.40;24.66
39051;BME280;24805;55.852;37.644;2022-08-19T08:46:00;100163.63;;;32.57;25.17
39051;BME280;24805;55.852;37.644;2022-08-19T08:51:10;100184.91;;;32.24;25.90
39051;BME280;24805;55.852;37.644;2022-08-19T08:56:14;100156.75;;;33.40;24.58
39051;BME280;24805;55.852;37.644;2022-08-19T09:01:19;100151.03;;;34.86;23.05
39051;BME280;24805;55.852;37.644;2022-08-19T09:06:32;100165.47;;;35.99;22.14
39051;BME280;24805;55.852;37.644;2022-08-19T09:11:54;100147.41;;;36.39;21.08
39051;BME280;24805;55.852;37.644;2022-08-19T09:16:59;100147.50;;;36.22;20.05
39051;BME280;24805;55.852;37.644;2022-08-19T09:22:02;100153.22;;;35.70;20.01
39051;BME280;24805;55.852;37.644;2022-08-19T09:27:04;100170.50;;;34.89;20.65
39051;BME280;24805;55.852;37.644;2022-08-19T09:32:20;100155.22;;;34.09;22.05
39051;BME280;24805;55.852;37.644;2022-08-19T09:37:27;100161.06;;;33.10;22.68
39051;BME280;24805;55.852;37.644;2022-08-19T09:42:29;100173.81;;;32.29;24.28
39051;BME280;24805;55.852;37.644;2022-08-19T09:47:36;100153.94;;;32.59;23.44
39051;BME280;24805;55.852;37.644;2022-08-19T09:52:41;100177.31;;;33.20;21.19
39051;BME280;24805;55.852;37.644;2022-08-19T09:58:02;100175.47;;;34.62;20.39
39051;BME280;24805;55.852;37.644;2022-08-19T10:03:04;100168.72;;;35.37;18.65
39051;BME280;24805;55.852;37.644;2022-08-19T10:08:08;100173.34;;;35.79;18.78
39051;BME280;24805;55.852;37.644;2022-08-19T10:13:17;100181.53;;;35.41;18.59
39051;BME280;24805;55.852;37.644;2022-08-19T10:18:21;100183.16;;;35.08;19.07
39051;BME280;24805;55.852;37.644;2022-08-19T10:23:23;100178.78;;;35.07;19.54
39051;BME280;24805;55.852;37.644;2022-08-19T10:28:25;100178.03;;;35.79;18.52
39051;BME280;24805;55.852;37.644;2022-08-19T10:33:31;100179.19;;;35.78;18.80
39051;BME280;24805;55.852;37.644;2022-08-19T10:38:55;100189.00;;;36.05;17.80
39051;BME280;24805;55.852;37.644;2022-08-19T10:44:04;100207.97;;;36.15;16.04
39051;BME280;24805;55.852;37.644;2022-08-19T10:49:09;100184.06;;;36.19;15.34
39051;BME280;24805;55.852;37.644;2022-08-19T10:54:12;100177.59;;;36.53;14.30
39051;BME280;24805;55.852;37.644;2022-08-19T10:59:15;100188.19;;;36.04;14.21
39051;BME280;24805;55.852;37.644;2022-08-19T11:04:19;100200.47;;;35.60;14.16
39051;BME280;24805;55.852;37.644;2022-08-19T11:09:23;100201.81;;;35.45;13.59
39051;BME280;24805;55.852;37.644;2022-08-19T11:14:35;100193.84;;;35.44;14.18
39051;BME280;24805;55.852;37.644;2022-08-19T11:19:38;100140.13;;;35.41;13.97
39051;BME280;24805;55.852;37.644;2022-08-19T11:24:40;100168.06;;;35.14;14.28
39051;BME280;24805;55.852;37.644;2022-08-19T11:29:43;100183.06;;;34.47;15.72
39051;BME280;24805;55.852;37.644;2022-08-19T11:34:45;100183.81;;;34.31;15.31
39051;BME280;24805;55.852;37.644;2022-08-19T11:39:48;100174.19;;;34.68;14.69
39051;BME280;24805;55.852;37.644;2022-08-19T11:44:54;100177.63;;;35.08;14.10
39051;BME280;24805;55.852;37.644;2022-08-19T11:49:57;100177.66;;;35.34;14.48
39051;BME280;24805;55.852;37.644;2022-08-19T11:54:59;100192.72;;;35.53;14.62
39051;BME280;24805;55.852;37.644;2022-08-19T12:00:02;100190.59;;;35.50;14.23
39051;BME280;24805;55.852;37.644;2022-08-19T12:05:06;100196.00;;;35.30;15.07
39051;BME280;24805;55.852;37.644;2022-08-19T12:10:13;100175.00;;;34.20;17.19
39051;BME280;24805;55.852;37.644;2022-08-19T12:15:19;100166.97;;;33.03;18.64
39051;BME280;24805;55.852;37.644;2022-08-19T12:20:23;100179.22;;;32.20;19.81
39051;BME280;24805;55.852;37.644;2022-08-19T12:25:25;100167.25;;;31.70;20.82
39051;BME280;24805;55.852;37.644;2022-08-19T12:30:27;100182.94;;;31.97;20.87
39051;BME280;24805;55.852;37.644;2022-08-19T12:35:29;100169.09;;;32.70;20.31
39051;BME280;24805;55.852;37.644;2022-08-19T12:40:32;100164.34;;;33.34;19.36
39051;BME280;24805;55.852;37.644;2022-08-19T12:45:34;100168.53;;;33.85;18.95
39051;BME280;24805;55.852;37.644;2022-08-19T12:50:42;100168.13;;;34.40;18.77
39051;BME280;24805;55.852;37.644;2022-08-19T12:55:45;100166.44;;;34.87;17.91
39051;BME280;24805;55.852;37.644;2022-08-19T13:00:47;100167.91;;;35.28;18.10
39051;BME280;24805;55.852;37.644;2022-08-19T13:05:50;100166.44;;;34.87;18.65
39051;BME280;24805;55.852;37.644;2022-08-19T13:10:52;100167.22;;;34.22;19.24
39051;BME280;24805;55.852;37.644;2022-08-19T13:16:00;100152.53;;;33.87;19.79
39051;BME280;24805;55.852;37.644;2022-08-19T13:21:09;100164.97;;;33.31;20.35
39051;BME280;24805;55.852;37.644;2022-08-19T13:26:12;100164.88;;;32.50;21.38
39051;BME280;24805;55.852;37.644;2022-08-19T13:31:16;100164.13;;;31.90;22.35
39051;BME280;24805;55.852;37.644;2022-08-19T13:36:38;100160.34;;;31.21;22.81
39051;BME280;24805;55.852;37.644;2022-08-19T13:41:45;100175.09;;;30.88;23.77
39051;BME280;24805;55.852;37.644;2022-08-19T13:46:49;100147.41;;;30.04;24.21
39051;BME280;24805;55.852;37.644;2022-08-19T13:51:55;100163.25;;;29.49;25.31
39051;BME280;24805;55.852;37.644;2022-08-19T13:56:57;100173.09;;;29.11;26.21
39051;BME280;24805;55.852;37.644;2022-08-19T14:02:00;100181.69;;;28.89;26.30
39051;BME280;24805;55.852;37.644;2022-08-19T14:07:02;100178.16;;;28.84;26.91
39051;BME280;24805;55.852;37.644;2022-08-19T14:12:05;100183.41;;;28.70;27.00
39051;BME280;24805;55.852;37.644;2022-08-19T14:17:08;100187.84;;;28.56;27.44
39051;BME280;24805;55.852;37.644;2022-08-19T14:22:13;100170.41;;;28.46;27.53
39051;BME280;24805;55.852;37.644;2022-08-19T14:27:22;100191.53;;;28.21;28.06
39051;BME280;24805;55.852;37.644;2022-08-19T14:32:26;100195.88;;;28.11;28.55
39051;BME280;24805;55.852;37.644;2022-08-19T14:37:30;100191.84;;;27.94;28.85
39051;BME280;24805;55.852;37.644;2022-08-19T14:42:38;100187.50;;;27.77;29.11
39051;BME280;24805;55.852;37.644;2022-08-19T14:47:40;100192.41;;;27.60;29.77
39051;BME280;24805;55.852;37.644;2022-08-19T14:52:42;100189.41;;;27.52;29.42
39051;BME280;24805;55.852;37.644;2022-08-19T14:57:45;100186.94;;;27.35;29.89
39051;BME280;24805;55.852;37.644;2022-08-19T15:02:47;100205.44;;;27.23;30.08
39051;BME280;24805;55.852;37.644;2022-08-19T15:07:49;100207.59;;;27.05;30.29
39051;BME280;24805;55.852;37.644;2022-08-19T15:12:51;100205.06;;;26.84;30.55
39051;BME280;24805;55.852;37.644;2022-08-19T15:17:55;100217.84;;;26.83;30.60
39051;BME280;24805;55.852;37.644;2022-08-19T15:23:03;100204.22;;;26.73;31.06
39051;BME280;24805;55.852;37.644;2022-08-19T15:28:05;100212.13;;;26.74;30.94
39051;BME280;24805;55.852;37.644;2022-08-19T15:33:08;100215.13;;;26.73;30.96
39051;BME280;24805;55.852;37.644;2022-08-19T15:38:11;100219.72;;;26.67;31.39
39051;BME280;24805;55.852;37.644;2022-08-19T15:43:18;100227.28;;;26.60;31.38
39051;BME280;24805;55.852;37.644;2022-08-19T15:48:22;100227.56;;;26.54;31.73
39051;BME280;24805;55.852;37.644;2022-08-19T15:53:25;100234.31;;;26.46;31.41
39051;BME280;24805;55.852;37.644;2022-08-19T15:58:27;100244.59;;;26.39;31.81
39051;BME280;24805;55.852;37.644;2022-08-19T16:03:49;100249.47;;;26.32;31.66
39051;BME280;24805;55.852;37.644;2022-08-19T16:09:17;100254.81;;;26.22;32.00
39051;BME280;24805;55.852;37.644;2022-08-19T16:14:26;100259.38;;;26.11;32.09
39051;BME280;24805;55.852;37.644;2022-08-19T16:19:28;100245.94;;;25.94;32.08
39051;BME280;24805;55.852;37.644;2022-08-19T16:24:31;100231.13;;;25.75;32.09
39051;BME280;24805;55.852;37.644;2022-08-19T16:29:36;100264.00;;;25.73;32.15
39051;BME280;24805;55.852;37.644;2022-08-19T16:34:41;100278.78;;;25.61;32.16
39051;BME280;24805;55.852;37.644;2022-08-19T16:39:43;100276.25;;;25.49;32.49
39051;BME280;24805;55.852;37.644;2022-08-19T16:44:46;100268.50;;;25.36;32.76
39051;BME280;24805;55.852;37.644;2022-08-19T16:49:48;100274.91;;;25.25;32.63
39051;BME280;24805;55.852;37.644;2022-08-19T16:54:55;100293.81;;;25.15;32.21
39051;BME280;24805;55.852;37.644;2022-08-19T16:59:57;100287.66;;;24.97;32.12
39051;BME280;24805;55.852;37.644;2022-08-19T17:05:00;100298.59;;;24.86;32.18
39051;BME280;24805;55.852;37.644;2022-08-19T17:10:04;100324.81;;;24.80;32.07
39051;BME280;24805;55.852;37.644;2022-08-19T17:15:06;100319.28;;;24.70;32.19
39051;BME280;24805;55.852;37.644;2022-08-19T17:20:12;100327.59;;;24.63;31.99
39051;BME280;24805;55.852;37.644;2022-08-19T17:25:15;100324.50;;;24.55;31.93
39051;BME280;24805;55.852;37.644;2022-08-19T17:30:17;100323.84;;;24.48;32.06
39051;BME280;24805;55.852;37.644;2022-08-19T17:35:19;100313.97;;;24.42;31.98
39051;BME280;24805;55.852;37.644;2022-08-19T17:40:25;100329.88;;;24.33;31.92
39051;BME280;24805;55.852;37.644;2022-08-19T17:45:30;100331.09;;;24.25;32.10
39051;BME280;24805;55.852;37.644;2022-08-19T17:50:33;100337.47;;;24.19;32.11
39051;BME280;24805;55.852;37.644;2022-08-19T17:55:36;100331.06;;;24.09;32.30
39051;BME280;24805;55.852;37.644;2022-08-19T18:00:38;100339.53;;;23.95;32.37
39051;BME280;24805;55.852;37.644;2022-08-19T18:05:54;100341.59;;;23.88;32.22
39051;BME280;24805;55.852;37.644;2022-08-19T18:10:59;100334.91;;;23.79;32.54
39051;BME280;24805;55.852;37.644;2022-08-19T18:16:03;100320.19;;;23.58;32.73
39051;BME280;24805;55.852;37.644;2022-08-19T18:21:07;100340.78;;;23.59;32.88
39051;BME280;24805;55.852;37.644;2022-08-19T18:26:09;100353.28;;;23.49;33.04
39051;BME280;24805;55.852;37.644;2022-08-19T18:31:11;100358.25;;;23.40;33.12
39051;BME280;24805;55.852;37.644;2022-08-19T18:36:14;100359.72;;;23.31;32.85
39051;BME280;24805;55.852;37.644;2022-08-19T18:41:16;100347.03;;;23.20;32.76
39051;BME280;24805;55.852;37.644;2022-08-19T18:46:36;100360.00;;;23.18;32.90
39051;BME280;24805;55.852;37.644;2022-08-19T18:51:58;100360.13;;;23.11;33.00
39051;BME280;24805;55.852;37.644;2022-08-19T18:57:02;100349.06;;;23.01;32.94
39051;BME280;24805;55.852;37.644;2022-08-19T19:02:06;100353.22;;;22.92;33.08
39051;BME280;24805;55.852;37.644;2022-08-19T19:07:09;100356.28;;;22.84;32.84
39051;BME280;24805;55.852;37.644;2022-08-19T19:12:12;100353.13;;;22.75;33.12
39051;BME280;24805;55.852;37.644;2022-08-19T19:17:15;100350.53;;;22.68;33.34
39051;BME280;24805;55.852;37.644;2022-08-19T19:22:21;100355.81;;;22.63;32.98
39051;BME280;24805;55.852;37.644;2022-08-19T19:27:24;100337.47;;;22.42;33.41
39051;BME280;24805;55.852;37.644;2022-08-19T19:32:28;100351.72;;;22.49;33.06
39051;BME280;24805;55.852;37.644;2022-08-19T19:37:39;100352.19;;;22.34;33.65
39051;BME280;24805;55.852;37.644;2022-08-19T19:42:41;100362.28;;;22.27;33.54
39051;BME280;24805;55.852;37.644;2022-08-19T19:47:43;100347.22;;;22.08;33.86
39051;BME280;24805;55.852;37.644;2022-08-19T19:52:48;100363.19;;;22.10;33.93
39051;BME280;24805;55.852;37.644;2022-08-19T19:57:51;100371.63;;;22.02;33.88
39051;BME280;24805;55.852;37.644;2022-08-19T20:02:55;100375.69;;;21.92;34.00
39051;BME280;24805;55.852;37.644;2022-08-19T20:07:57;100374.97;;;21.85;33.83
39051;BME280;24805;55.852;37.644;2022-08-19T20:13:19;100371.53;;;21.78;33.69
39051;BME280;24805;55.852;37.644;2022-08-19T20:18:22;100368.72;;;21.73;33.89
39051;BME280;24805;55.852;37.644;2022-08-19T20:23:25;100361.25;;;21.57;33.72
39051;BME280;24805;55.852;37.644;2022-08-19T20:28:27;100371.56;;;21.60;33.53
39051;BME280;24805;55.852;37.644;2022-08-19T20:33:30;100372.38;;;21.49;33.55
39051;BME280;24805;55.852;37.644;2022-08-19T20:38:33;100386.16;;;21.41;33.92
39051;BME280;24805;55.852;37.644;2022-08-19T20:43:36;100389.56;;;21.36;33.70
39051;BME280;24805;55.852;37.644;2022-08-19T20:48:39;100387.38;;;21.26;34.22
39051;BME280;24805;55.852;37.644;2022-08-19T20:53:43;100389.31;;;21.19;34.20
39051;BME280;24805;55.852;37.644;2022-08-19T20:58:46;100390.91;;;21.09;34.28
39051;BME280;24805;55.852;37.644;2022-08-19T21:03:55;100388.03;;;21.04;34.48
39051;BME280;24805;55.852;37.644;2022-08-19T21:08:57;100401.00;;;20.95;34.38
39051;BME280;24805;55.852;37.644;2022-08-19T21:13:59;100400.25;;;20.88;34.71
39051;BME280;24805;55.852;37.644;2022-08-19T21:19:02;100402.41;;;20.79;34.51
39051;BME280;24805;55.852;37.644;2022-08-19T21:24:05;100412.84;;;20.76;35.16
39051;BME280;24805;55.852;37.644;2022-08-19T21:29:08;100400.72;;;20.60;34.94
39051;BME280;24805;55.852;37.644;2022-08-19T21:34:11;100409.41;;;20.62;35.01
39051;BME280;24805;55.852;37.644;2022-08-19T21:39:13;100409.50;;;20.55;35.41
39051;BME280;24805;55.852;37.644;2022-08-19T21:44:15;100412.84;;;20.51;35.27
39051;BME280;24805;55.852;37.644;2022-08-19T21:49:17;100406.69;;;20.44;35.00
39051;BME280;24805;55.852;37.644;2022-08-19T21:54:20;100395.97;;;20.30;35.26
39051;BME280;24805;55.852;37.644;2022-08-19T21:59:22;100413.16;;;20.36;35.31
39051;BME280;24805;55.852;37.644;2022-08-19T22:04:24;100412.75;;;20.33;35.38
39051;BME280;24805;55.852;37.644;2022-08-19T22:09:27;100416.72;;;20.30;35.66
39051;BME280;24805;55.852;37.644;2022-08-19T22:14:29;100414.28;;;20.22;35.67
39051;BME280;24805;55.852;37.644;2022-08-19T22:19:31;100406.47;;;20.14;35.68
39051;BME280;24805;55.852;37.644;2022-08-19T22:24:34;100411.09;;;20.07;35.84
39051;BME280;24805;55.852;37.644;2022-08-19T22:29:36;100422.28;;;20.04;36.13
39051;BME280;24805;55.852;37.644;2022-08-19T22:34:39;100426.44;;;20.00;36.44
39051;BME280;24805;55.852;37.644;2022-08-19T22:39:42;100423.00;;;19.92;36.46
39051;BME280;24805;55.852;37.644;2022-08-19T22:44:44;100424.47;;;19.88;36.47
39051;BME280;24805;55.852;37.644;2022-08-19T22:49:46;100423.22;;;19.84;36.75
39051;BME280;24805;55.852;37.644;2022-08-19T22:54:51;100431.09;;;19.86;36.73
39051;BME280;24805;55.852;37.644;2022-08-19T22:59:54;100438.84;;;19.76;36.95
39051;BME280;24805;55.852;37.644;2022-08-19T23:05:08;100429.72;;;19.77;37.14
39051;BME280;24805;55.852;37.644;2022-08-19T23:10:11;100455.25;;;19.61;37.59
39051;BME280;24805;55.852;37.644;2022-08-19T23:15:30;100452.53;;;19.61;37.71
39051;BME280;24805;55.852;37.644;2022-08-19T23:20:34;100456.09;;;19.48;37.95
39051;BME280;24805;55.852;37.644;2022-08-19T23:25:38;100458.81;;;19.42;38.28
39051;BME280;24805;55.852;37.644;2022-08-19T23:30:43;100460.66;;;19.41;38.74
39051;BME280;24805;55.852;37.644;2022-08-19T23:35:46;100446.84;;;19.31;38.52
39051;BME280;24805;55.852;37.644;2022-08-19T23:40:50;100454.25;;;19.42;38.71
39051;BME280;24805;55.852;37.644;2022-08-19T23:45:52;100457.97;;;19.41;39.01
39051;BME280;24805;55.852;37.644;2022-08-19T23:51:04;100466.25;;;19.46;39.15
39051;BME280;24805;55.852;37.644;2022-08-19T23:56:07;100457.41;;;19.33;39.62
